This is the latest recevied weather packets stored in our database for station/object OK1FET-14. If no packets are shown the sender has not sent any weather packets the latest 1 day(s).
| Time | Temp. | Humidity | Pressure | Rain* | Wind** | Luminosity | Snow |
|---|---|---|---|---|---|---|---|
| 1778017398 | 10.56° C | 100% | 1007.6 hPa | - | 3.13 m/s, 357° | - | - |
| 1778017398 | 10.56° C | 100% | 1007.6 hPa | - | 3.13 m/s, 357° | - | - |
| 1778017398 | 10.56° C | 100% | 1007.6 hPa | - | 3.13 m/s, 357° | - | - |
| 1778017398 | 10.56° C | 100% | 1007.6 hPa | - | 3.13 m/s, 357° | - | - |
| 1778017118 | 10.56° C | 100% | 1007.2 hPa | - | 4.02 m/s, 342° | - | - |
| 1778017118 | 10.56° C | 100% | 1007.2 hPa | - | 4.02 m/s, 342° | - | - |
| 1778017118 | 10.56° C | 100% | 1007.2 hPa | - | 4.02 m/s, 342° | - | - |
| 1778017118 | 10.56° C | 100% | 1007.2 hPa | - | 4.02 m/s, 342° | - | - |
| 1778016838 | 10.56° C | 100% | 1007.2 hPa | - | 3.13 m/s, 344° | - | - |
| 1778016838 | 10.56° C | 100% | 1007.2 hPa | - | 3.13 m/s, 344° | - | - |
| 1778016838 | 10.56° C | 100% | 1007.2 hPa | - | 3.13 m/s, 344° | - | - |
| 1778016838 | 10.56° C | 100% | 1007.2 hPa | - | 3.13 m/s, 344° | - | - |
| 1778016558 | 10.56° C | 100% | 1007 hPa | - | 4.02 m/s, 331° | - | - |
| 1778016558 | 10.56° C | 100% | 1007 hPa | - | 4.02 m/s, 331° | - | - |
| 1778016558 | 10.56° C | 100% | 1007 hPa | - | 4.02 m/s, 331° | - | - |
| 1778016278 | 10.56° C | 100% | 1007.3 hPa | - | 1.79 m/s, 259° | - | - |
| 1778016278 | 10.56° C | 100% | 1007.3 hPa | - | 1.79 m/s, 259° | - | - |
| 1778016278 | 10.56° C | 100% | 1007.3 hPa | - | 1.79 m/s, 259° | - | - |
| 1778016278 | 10.56° C | 100% | 1007.3 hPa | - | 1.79 m/s, 259° | - | - |
| 1778015998 | 10.56° C | 100% | 1007.7 hPa | - | 2.68 m/s, 232° | - | - |
| 1778015998 | 10.56° C | 100% | 1007.7 hPa | - | 2.68 m/s, 232° | - | - |
| 1778015998 | 10.56° C | 100% | 1007.7 hPa | - | 2.68 m/s, 232° | - | - |
| 1778015718 | 10.56° C | 100% | 1007.8 hPa | - | 3.58 m/s, 255° | - | - |
| 1778015718 | 10.56° C | 100% | 1007.8 hPa | - | 3.58 m/s, 255° | - | - |
| 1778015718 | 10.56° C | 100% | 1007.8 hPa | - | 3.58 m/s, 255° | - | - |
* Rain since midnight (hover to see other rain measurements)
** Current wind speed in m/s (hover to see current wind gust speed)